sensor_id;sensor_type;location;lat;lon;timestamp;pressure;altitude;pressure_sealevel;temperature;humidity
11712;BME280;5912;51.034;6.984;2023-05-25T00:00:19;56494.56;;;-142.13;72.13
11712;BME280;5912;51.034;6.984;2023-05-25T00:02:45;56492.53;;;-142.13;72.44
11712;BME280;5912;51.034;6.984;2023-05-25T00:05:11;56512.59;;;-142.13;72.42
11712;BME280;5912;51.034;6.984;2023-05-25T00:07:37;56442.47;;;-142.13;72.50
11712;BME280;5912;51.034;6.984;2023-05-25T00:10:04;56520.59;;;-142.13;72.39
11712;BME280;5912;51.034;6.984;2023-05-25T00:12:30;56484.53;;;-142.13;72.50
11712;BME280;5912;51.034;6.984;2023-05-25T00:14:56;56502.56;;;-142.13;72.05
11712;BME280;5912;51.034;6.984;2023-05-25T00:17:21;56520.59;;;-142.13;72.10
11712;BME280;5912;51.034;6.984;2023-05-25T00:19:48;56492.53;;;-142.13;72.13
11712;BME280;5912;51.034;6.984;2023-05-25T00:22:13;56524.59;;;-142.13;72.50
11712;BME280;5912;51.034;6.984;2023-05-25T00:24:39;56502.56;;;-142.13;72.26
11712;BME280;5912;51.034;6.984;2023-05-25T00:27:05;56548.63;;;-142.13;72.29
11712;BME280;5912;51.034;6.984;2023-05-25T00:29:31;56510.56;;;-142.13;72.05
11712;BME280;5912;51.034;6.984;2023-05-25T00:31:57;56516.59;;;-142.13;72.36
11712;BME280;5912;51.034;6.984;2023-05-25T00:34:22;56540.63;;;-142.13;72.39
11712;BME280;5912;51.034;6.984;2023-05-25T00:36:47;56514.59;;;-142.13;72.47
11712;BME280;5912;51.034;6.984;2023-05-25T00:39:14;56520.59;;;-142.13;72.61
11712;BME280;5912;51.034;6.984;2023-05-25T00:41:42;56568.66;;;-142.13;72.73
11712;BME280;5912;51.034;6.984;2023-05-25T00:44:08;56540.63;;;-142.13;72.45
11712;BME280;5912;51.034;6.984;2023-05-25T00:46:34;56516.59;;;-142.13;72.65
11712;BME280;5912;51.034;6.984;2023-05-25T00:49:00;56504.56;;;-142.13;73.06
11712;BME280;5912;51.034;6.984;2023-05-25T00:51:26;56496.56;;;-142.13;73.04
11712;BME280;5912;51.034;6.984;2023-05-25T00:53:56;56524.59;;;-142.13;73.14
11712;BME280;5912;51.034;6.984;2023-05-25T00:56:25;56494.56;;;-142.13;73.02
11712;BME280;5912;51.034;6.984;2023-05-25T00:58:53;56516.59;;;-142.13;73.41
11712;BME280;5912;51.034;6.984;2023-05-25T01:01:22;56528.59;;;-142.13;73.30
11712;BME280;5912;51.034;6.984;2023-05-25T01:03:50;56510.56;;;-142.13;73.51
11712;BME280;5912;51.034;6.984;2023-05-25T01:06:19;56514.59;;;-142.13;73.73
11712;BME280;5912;51.034;6.984;2023-05-25T01:08:53;56544.63;;;-142.13;73.67
11712;BME280;5912;51.034;6.984;2023-05-25T01:11:26;56512.59;;;-142.13;73.82
11712;BME280;5912;51.034;6.984;2023-05-25T01:13:52;56524.59;;;-142.13;74.04
11712;BME280;5912;51.034;6.984;2023-05-25T01:16:19;56536.63;;;-142.13;73.73
11712;BME280;5912;51.034;6.984;2023-05-25T01:18:45;56544.63;;;-142.13;74.02
11712;BME280;5912;51.034;6.984;2023-05-25T01:21:19;56550.63;;;-142.13;73.81
11712;BME280;5912;51.034;6.984;2023-05-25T01:23:51;56558.66;;;-142.13;73.67
11712;BME280;5912;51.034;6.984;2023-05-25T01:26:20;56556.66;;;-142.13;74.13
11712;BME280;5912;51.034;6.984;2023-05-25T01:28:51;56532.63;;;-142.13;74.08
11712;BME280;5912;51.034;6.984;2023-05-25T01:31:19;56514.59;;;-142.13;73.83
11712;BME280;5912;51.034;6.984;2023-05-25T01:33:46;56488.53;;;-142.13;74.06
11712;BME280;5912;51.034;6.984;2023-05-25T01:36:13;56564.66;;;-142.13;74.46
11712;BME280;5912;51.034;6.984;2023-05-25T01:38:38;56560.66;;;-142.13;74.51
11712;BME280;5912;51.034;6.984;2023-05-25T01:41:04;56552.66;;;-142.13;74.52
11712;BME280;5912;51.034;6.984;2023-05-25T01:43:29;56536.63;;;-142.13;74.27
11712;BME280;5912;51.034;6.984;2023-05-25T01:46:01;56516.59;;;-142.13;74.95
11712;BME280;5912;51.034;6.984;2023-05-25T01:49:42;56544.63;;;-142.13;75.14
11712;BME280;5912;51.034;6.984;2023-05-25T01:54:45;56502.56;;;-142.13;74.98
11712;BME280;5912;51.034;6.984;2023-05-25T01:57:14;56494.56;;;-142.13;74.57
11712;BME280;5912;51.034;6.984;2023-05-25T01:59:42;56526.59;;;-142.13;74.76
11712;BME280;5912;51.034;6.984;2023-05-25T02:02:08;56534.63;;;-142.13;74.83
11712;BME280;5912;51.034;6.984;2023-05-25T02:04:34;56688.88;;;-142.13;74.97
11712;BME280;5912;51.034;6.984;2023-05-25T02:06:59;56534.63;;;-142.13;75.47
11712;BME280;5912;51.034;6.984;2023-05-25T02:09:25;56554.66;;;-142.13;75.23
11712;BME280;5912;51.034;6.984;2023-05-25T02:11:50;56522.59;;;-142.13;75.43
11712;BME280;5912;51.034;6.984;2023-05-25T02:14:16;56520.59;;;-142.13;75.42
11712;BME280;5912;51.034;6.984;2023-05-25T02:16:41;56524.59;;;-142.13;75.32
11712;BME280;5912;51.034;6.984;2023-05-25T02:19:07;56526.59;;;-142.13;75.45
11712;BME280;5912;51.034;6.984;2023-05-25T02:21:32;56532.63;;;-142.13;75.21
11712;BME280;5912;51.034;6.984;2023-05-25T02:24:00;56540.63;;;-142.13;75.57
11712;BME280;5912;51.034;6.984;2023-05-25T02:26:25;56532.63;;;-142.13;75.46
11712;BME280;5912;51.034;6.984;2023-05-25T02:28:51;56554.66;;;-142.13;75.80
11712;BME280;5912;51.034;6.984;2023-05-25T02:31:16;56558.66;;;-142.13;75.46
11712;BME280;5912;51.034;6.984;2023-05-25T02:33:42;56568.66;;;-142.13;75.73
11712;BME280;5912;51.034;6.984;2023-05-25T02:36:07;56532.63;;;-142.13;75.77
11712;BME280;5912;51.034;6.984;2023-05-25T02:38:33;56558.66;;;-142.13;75.94
11712;BME280;5912;51.034;6.984;2023-05-25T02:40:58;56552.66;;;-142.13;75.95
11712;BME280;5912;51.034;6.984;2023-05-25T02:43:24;56536.63;;;-142.13;75.69
11712;BME280;5912;51.034;6.984;2023-05-25T02:45:49;56560.66;;;-142.13;76.13
11712;BME280;5912;51.034;6.984;2023-05-25T02:48:14;56558.66;;;-142.13;75.97
11712;BME280;5912;51.034;6.984;2023-05-25T02:50:40;56530.59;;;-142.13;75.81
11712;BME280;5912;51.034;6.984;2023-05-25T02:53:05;56556.66;;;-142.13;75.29
11712;BME280;5912;51.034;6.984;2023-05-25T02:55:31;56576.69;;;-142.13;75.62
11712;BME280;5912;51.034;6.984;2023-05-25T02:57:56;56528.59;;;-142.13;75.53
11712;BME280;5912;51.034;6.984;2023-05-25T03:00:22;56522.59;;;-142.13;75.26
11712;BME280;5912;51.034;6.984;2023-05-25T03:02:47;56540.63;;;-142.13;75.54
11712;BME280;5912;51.034;6.984;2023-05-25T03:05:14;56544.63;;;-142.13;75.67
11712;BME280;5912;51.034;6.984;2023-05-25T03:07:40;56536.63;;;-142.13;75.60
11712;BME280;5912;51.034;6.984;2023-05-25T03:10:06;56520.59;;;-142.13;75.43
11712;BME280;5912;51.034;6.984;2023-05-25T03:12:31;56540.63;;;-142.13;75.44
11712;BME280;5912;51.034;6.984;2023-05-25T03:14:57;56534.63;;;-142.13;75.54
11712;BME280;5912;51.034;6.984;2023-05-25T03:17:22;56534.63;;;-142.13;75.85
11712;BME280;5912;51.034;6.984;2023-05-25T03:19:47;56578.69;;;-142.13;75.69
11712;BME280;5912;51.034;6.984;2023-05-25T03:22:12;56524.59;;;-142.13;75.60
11712;BME280;5912;51.034;6.984;2023-05-25T03:24:38;56536.63;;;-142.13;75.99
11712;BME280;5912;51.034;6.984;2023-05-25T03:27:06;56538.63;;;-142.13;75.76
11712;BME280;5912;51.034;6.984;2023-05-25T03:29:32;56558.66;;;-142.13;75.67
11712;BME280;5912;51.034;6.984;2023-05-25T03:31:58;56568.66;;;-142.13;76.29
11712;BME280;5912;51.034;6.984;2023-05-25T03:34:23;56540.63;;;-142.13;76.66
11712;BME280;5912;51.034;6.984;2023-05-25T03:36:48;56604.72;;;-142.13;76.77
11712;BME280;5912;51.034;6.984;2023-05-25T03:39:14;56554.66;;;-142.13;76.47
11712;BME280;5912;51.034;6.984;2023-05-25T03:41:39;56556.66;;;-142.13;76.28
11712;BME280;5912;51.034;6.984;2023-05-25T03:44:05;56556.66;;;-142.13;76.44
11712;BME280;5912;51.034;6.984;2023-05-25T03:46:30;56572.69;;;-142.13;76.60
11712;BME280;5912;51.034;6.984;2023-05-25T03:48:55;56548.63;;;-142.13;76.48
11712;BME280;5912;51.034;6.984;2023-05-25T03:51:20;56564.66;;;-142.13;76.59
11712;BME280;5912;51.034;6.984;2023-05-25T03:53:46;56516.59;;;-142.13;76.42
11712;BME280;5912;51.034;6.984;2023-05-25T03:56:11;56552.66;;;-142.13;76.61
11712;BME280;5912;51.034;6.984;2023-05-25T03:58:36;56578.69;;;-142.13;76.48
11712;BME280;5912;51.034;6.984;2023-05-25T04:01:02;56588.69;;;-142.13;76.60
11712;BME280;5912;51.034;6.984;2023-05-25T04:03:28;56544.63;;;-142.13;76.92
11712;BME280;5912;51.034;6.984;2023-05-25T04:05:53;56526.59;;;-142.13;76.77
11712;BME280;5912;51.034;6.984;2023-05-25T04:08:18;56558.66;;;-142.13;76.62
11712;BME280;5912;51.034;6.984;2023-05-25T04:10:44;56512.59;;;-142.13;76.63
11712;BME280;5912;51.034;6.984;2023-05-25T04:13:10;56534.63;;;-142.13;76.45
11712;BME280;5912;51.034;6.984;2023-05-25T04:15:35;56566.66;;;-142.13;77.14
11712;BME280;5912;51.034;6.984;2023-05-25T04:18:01;56528.59;;;-142.13;76.95
11712;BME280;5912;51.034;6.984;2023-05-25T04:20:27;56526.59;;;-142.13;76.76
11712;BME280;5912;51.034;6.984;2023-05-25T04:22:52;56532.63;;;-142.13;76.83
11712;BME280;5912;51.034;6.984;2023-05-25T04:25:18;56526.59;;;-142.13;76.66
11712;BME280;5912;51.034;6.984;2023-05-25T04:27:44;56548.63;;;-142.13;76.95
11712;BME280;5912;51.034;6.984;2023-05-25T04:30:11;56510.56;;;-142.13;76.81
11712;BME280;5912;51.034;6.984;2023-05-25T04:32:37;56532.63;;;-142.13;76.47
11712;BME280;5912;51.034;6.984;2023-05-25T04:35:03;56520.59;;;-142.13;76.37
11712;BME280;5912;51.034;6.984;2023-05-25T04:37:29;56522.59;;;-142.13;76.65
11712;BME280;5912;51.034;6.984;2023-05-25T04:39:56;56500.56;;;-142.13;76.32
11712;BME280;5912;51.034;6.984;2023-05-25T04:42:22;56512.59;;;-142.13;76.20
11712;BME280;5912;51.034;6.984;2023-05-25T04:44:48;56536.63;;;-142.13;76.37
11712;BME280;5912;51.034;6.984;2023-05-25T04:47:14;56526.59;;;-142.13;75.97
11712;BME280;5912;51.034;6.984;2023-05-25T04:49:40;56534.63;;;-142.13;75.83
11712;BME280;5912;51.034;6.984;2023-05-25T04:52:05;56498.56;;;-142.13;75.60
11712;BME280;5912;51.034;6.984;2023-05-25T04:54:31;56492.53;;;-142.13;75.43
11712;BME280;5912;51.034;6.984;2023-05-25T04:56:56;56490.53;;;-142.13;75.41
11712;BME280;5912;51.034;6.984;2023-05-25T04:59:21;56492.53;;;-142.13;75.34
11712;BME280;5912;51.034;6.984;2023-05-25T05:01:47;56486.53;;;-142.13;74.87
11712;BME280;5912;51.034;6.984;2023-05-25T05:04:12;56516.59;;;-142.13;75.06
11712;BME280;5912;51.034;6.984;2023-05-25T05:06:39;56470.50;;;-142.13;74.60
11712;BME280;5912;51.034;6.984;2023-05-25T05:09:04;56508.56;;;-142.13;74.38
11712;BME280;5912;51.034;6.984;2023-05-25T05:11:30;56444.47;;;-142.13;74.05
11712;BME280;5912;51.034;6.984;2023-05-25T05:13:55;56472.50;;;-142.13;73.80
11712;BME280;5912;51.034;6.984;2023-05-25T05:16:20;56448.47;;;-142.13;73.91
11712;BME280;5912;51.034;6.984;2023-05-25T05:18:46;56456.50;;;-142.13;73.28
11712;BME280;5912;51.034;6.984;2023-05-25T05:21:11;56466.50;;;-142.13;72.89
11712;BME280;5912;51.034;6.984;2023-05-25T05:23:37;56474.53;;;-142.13;72.68
11712;BME280;5912;51.034;6.984;2023-05-25T05:26:02;56444.47;;;-142.13;71.98
11712;BME280;5912;51.034;6.984;2023-05-25T05:28:29;56454.47;;;-142.13;71.82
11712;BME280;5912;51.034;6.984;2023-05-25T05:30:55;56464.50;;;-142.13;71.27
11712;BME280;5912;51.034;6.984;2023-05-25T05:33:20;56442.47;;;-142.13;70.60
11712;BME280;5912;51.034;6.984;2023-05-25T05:35:48;56426.44;;;-142.13;70.49
11712;BME280;5912;51.034;6.984;2023-05-25T05:38:13;56430.44;;;-142.13;70.08
11712;BME280;5912;51.034;6.984;2023-05-25T05:40:38;56440.47;;;-142.13;69.78
11712;BME280;5912;51.034;6.984;2023-05-25T05:43:03;56464.50;;;-142.13;69.86
11712;BME280;5912;51.034;6.984;2023-05-25T05:45:29;56420.44;;;-142.13;69.57
11712;BME280;5912;51.034;6.984;2023-05-25T05:47:54;56438.47;;;-142.13;69.34
11712;BME280;5912;51.034;6.984;2023-05-25T05:50:19;56412.41;;;-142.13;68.38
11712;BME280;5912;51.034;6.984;2023-05-25T05:52:45;56438.47;;;-142.13;68.23
11712;BME280;5912;51.034;6.984;2023-05-25T05:55:11;56452.47;;;-142.13;68.26
11712;BME280;5912;51.034;6.984;2023-05-25T05:57:36;56408.41;;;-142.13;68.06
11712;BME280;5912;51.034;6.984;2023-05-25T06:00:02;56418.44;;;-142.13;67.96
11712;BME280;5912;51.034;6.984;2023-05-25T06:02:30;56388.38;;;-142.13;66.97
11712;BME280;5912;51.034;6.984;2023-05-25T06:04:55;56396.41;;;-142.13;66.33
11712;BME280;5912;51.034;6.984;2023-05-25T06:07:21;56408.41;;;-142.13;65.63
11712;BME280;5912;51.034;6.984;2023-05-25T06:09:46;56376.34;;;-142.13;65.28
11712;BME280;5912;51.034;6.984;2023-05-25T06:12:11;56388.38;;;-142.13;64.92
11712;BME280;5912;51.034;6.984;2023-05-25T06:14:37;56442.47;;;-142.13;64.92
11712;BME280;5912;51.034;6.984;2023-05-25T06:17:02;56380.38;;;-142.13;64.66
11712;BME280;5912;51.034;6.984;2023-05-25T06:19:27;56390.38;;;-142.13;63.88
11712;BME280;5912;51.034;6.984;2023-05-25T06:21:53;56356.31;;;-142.13;63.05
11712;BME280;5912;51.034;6.984;2023-05-25T06:24:18;56344.31;;;-142.13;62.22
11712;BME280;5912;51.034;6.984;2023-05-25T06:26:43;56332.28;;;-142.13;60.60
11712;BME280;5912;51.034;6.984;2023-05-25T06:29:08;56306.25;;;-142.13;58.04
11712;BME280;5912;51.034;6.984;2023-05-25T06:31:34;56270.19;;;-142.13;55.82
11712;BME280;5912;51.034;6.984;2023-05-25T06:34:00;56228.13;;;-142.13;52.72
11712;BME280;5912;51.034;6.984;2023-05-25T06:36:25;56206.09;;;-142.13;49.09
11712;BME280;5912;51.034;6.984;2023-05-25T06:38:51;56208.09;;;-142.13;45.63
11712;BME280;5912;51.034;6.984;2023-05-25T06:41:16;56170.03;;;-142.13;43.97
11712;BME280;5912;51.034;6.984;2023-05-25T06:43:43;56174.03;;;-142.13;43.07
11712;BME280;5912;51.034;6.984;2023-05-25T06:49:20;56111.94;;;-142.13;40.65
11712;BME280;5912;51.034;6.984;2023-05-25T06:51:45;56123.97;;;-142.13;39.66
11712;BME280;5912;51.034;6.984;2023-05-25T06:54:12;56103.94;;;-142.13;38.85
11712;BME280;5912;51.034;6.984;2023-05-25T06:56:39;56077.91;;;-142.13;38.04
11712;BME280;5912;51.034;6.984;2023-05-25T06:59:04;56071.88;;;-142.13;38.06
11712;BME280;5912;51.034;6.984;2023-05-25T07:01:30;56061.88;;;-142.13;36.65
11712;BME280;5912;51.034;6.984;2023-05-25T07:03:55;56047.84;;;-142.13;36.34
11712;BME280;5912;51.034;6.984;2023-05-25T07:06:20;56007.78;;;-142.13;35.83
11712;BME280;5912;51.034;6.984;2023-05-25T07:08:46;55995.78;;;-142.13;35.28
11712;BME280;5912;51.034;6.984;2023-05-25T07:11:11;55991.75;;;-142.13;34.85
11712;BME280;5912;51.034;6.984;2023-05-25T07:13:38;55967.72;;;-142.13;33.87
11712;BME280;5912;51.034;6.984;2023-05-25T07:16:03;55983.75;;;-142.13;33.36
11712;BME280;5912;51.034;6.984;2023-05-25T07:18:29;55977.75;;;-142.13;32.80
11712;BME280;5912;51.034;6.984;2023-05-25T07:20:54;55987.75;;;-142.13;32.52
11712;BME280;5912;51.034;6.984;2023-05-25T07:23:20;55937.69;;;-142.13;32.12
11712;BME280;5912;51.034;6.984;2023-05-25T07:25:45;55947.69;;;-142.13;32.10
11712;BME280;5912;51.034;6.984;2023-05-25T07:28:10;55927.66;;;-142.13;31.73
11712;BME280;5912;51.034;6.984;2023-05-25T07:30:36;55887.59;;;-142.13;30.90
11712;BME280;5912;51.034;6.984;2023-05-25T07:33:01;55871.59;;;-142.13;30.11
11712;BME280;5912;51.034;6.984;2023-05-25T07:35:27;55857.56;;;-142.13;29.46
11712;BME280;5912;51.034;6.984;2023-05-25T07:37:59;55845.53;;;-142.13;29.46
11712;BME280;5912;51.034;6.984;2023-05-25T07:40:25;55855.56;;;-142.13;29.43
11712;BME280;5912;51.034;6.984;2023-05-25T07:42:50;55843.53;;;-142.13;28.95
11712;BME280;5912;51.034;6.984;2023-05-25T07:45:16;55831.53;;;-142.13;28.60
11712;BME280;5912;51.034;6.984;2023-05-25T07:47:41;55845.53;;;-142.13;28.18
11712;BME280;5912;51.034;6.984;2023-05-25T07:50:07;55831.53;;;-142.13;27.94
11712;BME280;5912;51.034;6.984;2023-05-25T07:52:32;55865.56;;;-142.13;28.84
11712;BME280;5912;51.034;6.984;2023-05-25T07:54:57;55915.66;;;-142.13;30.32
11712;BME280;5912;51.034;6.984;2023-05-25T07:57:23;55933.69;;;-142.13;29.83
11712;BME280;5912;51.034;6.984;2023-05-25T07:59:49;55971.72;;;-142.13;30.52
11712;BME280;5912;51.034;6.984;2023-05-25T08:02:14;56017.81;;;-142.13;32.08
11712;BME280;5912;51.034;6.984;2023-05-25T08:04:39;56039.84;;;-142.13;32.51
11712;BME280;5912;51.034;6.984;2023-05-25T08:07:05;55995.78;;;-142.13;32.27
11712;BME280;5912;51.034;6.984;2023-05-25T08:09:30;55951.69;;;-142.13;31.07
11712;BME280;5912;51.034;6.984;2023-05-25T08:11:56;55925.66;;;-142.13;30.07
11712;BME280;5912;51.034;6.984;2023-05-25T08:14:21;55909.63;;;-142.13;29.92
11712;BME280;5912;51.034;6.984;2023-05-25T08:16:48;55857.56;;;-142.13;28.39
11712;BME280;5912;51.034;6.984;2023-05-25T08:19:13;55847.56;;;-142.13;27.73
11712;BME280;5912;51.034;6.984;2023-05-25T08:21:38;55831.53;;;-142.13;27.18
11712;BME280;5912;51.034;6.984;2023-05-25T08:24:05;55825.50;;;-142.13;26.63
11712;BME280;5912;51.034;6.984;2023-05-25T08:26:32;55795.47;;;-142.13;26.29
11712;BME280;5912;51.034;6.984;2023-05-25T08:29:00;55825.50;;;-142.13;26.80
11712;BME280;5912;51.034;6.984;2023-05-25T08:31:26;55819.50;;;-142.13;27.40
11712;BME280;5912;51.034;6.984;2023-05-25T08:33:51;55803.47;;;-142.13;27.34
11712;BME280;5912;51.034;6.984;2023-05-25T08:36:17;55799.47;;;-142.13;26.48
11712;BME280;5912;51.034;6.984;2023-05-25T08:38:42;55775.44;;;-142.13;26.34
11712;BME280;5912;51.034;6.984;2023-05-25T08:41:07;55815.50;;;-142.13;26.83
11712;BME280;5912;51.034;6.984;2023-05-25T08:43:33;55771.44;;;-142.13;25.98
11712;BME280;5912;51.034;6.984;2023-05-25T08:46:04;55777.44;;;-142.13;26.24
11712;BME280;5912;51.034;6.984;2023-05-25T08:48:31;55865.56;;;-142.13;26.79
11712;BME280;5912;51.034;6.984;2023-05-25T08:51:03;55919.66;;;-142.13;28.93
11712;BME280;5912;51.034;6.984;2023-05-25T08:53:36;55929.66;;;-142.13;29.58
11712;BME280;5912;51.034;6.984;2023-05-25T08:56:09;55939.69;;;-142.13;29.09
11712;BME280;5912;51.034;6.984;2023-05-25T08:59:17;55987.75;;;-142.13;30.46
11712;BME280;5912;51.034;6.984;2023-05-25T09:01:44;56025.81;;;-142.13;31.63
11712;BME280;5912;51.034;6.984;2023-05-25T09:04:11;56015.81;;;-142.13;31.58
11712;BME280;5912;51.034;6.984;2023-05-25T09:06:38;55993.75;;;-142.13;31.59
11712;BME280;5912;51.034;6.984;2023-05-25T09:09:03;56027.81;;;-142.13;32.11
11712;BME280;5912;51.034;6.984;2023-05-25T09:11:30;56015.81;;;-142.13;31.60
11712;BME280;5912;51.034;6.984;2023-05-25T09:13:56;55961.72;;;-142.13;31.33
11712;BME280;5912;51.034;6.984;2023-05-25T09:16:23;55943.69;;;-142.13;30.54
11712;BME280;5912;51.034;6.984;2023-05-25T09:18:49;55915.66;;;-142.13;28.82
11712;BME280;5912;51.034;6.984;2023-05-25T09:21:15;55905.63;;;-142.13;28.73
11712;BME280;5912;51.034;6.984;2023-05-25T09:23:41;55895.63;;;-142.13;28.45
11712;BME280;5912;51.034;6.984;2023-05-25T09:26:07;55889.59;;;-142.13;28.90
11712;BME280;5912;51.034;6.984;2023-05-25T09:28:33;55871.59;;;-142.13;28.80
11712;BME280;5912;51.034;6.984;2023-05-25T09:30:58;55843.53;;;-142.13;28.53
11712;BME280;5912;51.034;6.984;2023-05-25T09:33:24;55847.56;;;-142.13;27.97
11712;BME280;5912;51.034;6.984;2023-05-25T09:35:50;55841.53;;;-142.13;28.23
11712;BME280;5912;51.034;6.984;2023-05-25T09:38:15;55843.53;;;-142.13;27.85
11712;BME280;5912;51.034;6.984;2023-05-25T09:40:41;55839.53;;;-142.13;27.92
11712;BME280;5912;51.034;6.984;2023-05-25T09:43:06;55835.53;;;-142.13;27.76
11712;BME280;5912;51.034;6.984;2023-05-25T09:45:31;55839.53;;;-142.13;27.73
11712;BME280;5912;51.034;6.984;2023-05-25T09:47:57;55835.53;;;-142.13;27.72
11712;BME280;5912;51.034;6.984;2023-05-25T09:50:26;55851.56;;;-142.13;27.02
11712;BME280;5912;51.034;6.984;2023-05-25T09:52:56;55823.50;;;-142.13;26.92
11712;BME280;5912;51.034;6.984;2023-05-25T09:55:22;55823.50;;;-142.13;26.86
11712;BME280;5912;51.034;6.984;2023-05-25T09:57:52;55825.50;;;-142.13;27.43
11712;BME280;5912;51.034;6.984;2023-05-25T10:00:17;55813.50;;;-142.13;27.35
11712;BME280;5912;51.034;6.984;2023-05-25T10:02:42;55835.53;;;-142.13;26.88
11712;BME280;5912;51.034;6.984;2023-05-25T10:05:08;55825.50;;;-142.13;27.09
11712;BME280;5912;51.034;6.984;2023-05-25T10:07:33;55783.47;;;-142.13;27.29
11712;BME280;5912;51.034;6.984;2023-05-25T10:10:04;55787.47;;;-142.13;27.00
11712;BME280;5912;51.034;6.984;2023-05-25T10:12:31;55767.44;;;-142.13;26.10
11712;BME280;5912;51.034;6.984;2023-05-25T10:14:58;55767.44;;;-142.13;26.19
11712;BME280;5912;51.034;6.984;2023-05-25T10:17:30;55779.44;;;-142.13;26.38
11712;BME280;5912;51.034;6.984;2023-05-25T10:19:58;55779.44;;;-142.13;25.78
11712;BME280;5912;51.034;6.984;2023-05-25T10:27:40;55807.50;;;-142.13;27.17
11712;BME280;5912;51.034;6.984;2023-05-25T10:30:07;55787.47;;;-142.13;26.53
11712;BME280;5912;51.034;6.984;2023-05-25T10:32:33;55783.47;;;-142.13;26.33
11712;BME280;5912;51.034;6.984;2023-05-25T10:35:00;55785.47;;;-142.13;26.19
11712;BME280;5912;51.034;6.984;2023-05-25T10:37:28;55901.63;;;-142.13;26.94
11712;BME280;5912;51.034;6.984;2023-05-25T10:39:55;55827.53;;;-142.13;27.85
11712;BME280;5912;51.034;6.984;2023-05-25T10:42:21;55885.59;;;-142.13;28.20
11712;BME280;5912;51.034;6.984;2023-05-25T10:44:47;55865.56;;;-142.13;27.89
11712;BME280;5912;51.034;6.984;2023-05-25T10:47:14;55871.59;;;-142.13;27.66
11712;BME280;5912;51.034;6.984;2023-05-25T10:49:57;55923.66;;;-142.13;28.88
11712;BME280;5912;51.034;6.984;2023-05-25T10:52:30;55921.66;;;-142.13;28.44
11712;BME280;5912;51.034;6.984;2023-05-25T10:54:57;55895.63;;;-142.13;28.80
11712;BME280;5912;51.034;6.984;2023-05-25T10:57:25;55903.63;;;-142.13;28.46
11712;BME280;5912;51.034;6.984;2023-05-25T10:59:53;55927.66;;;-142.13;29.36
11712;BME280;5912;51.034;6.984;2023-05-25T11:02:27;55965.72;;;-142.13;29.54
11712;BME280;5912;51.034;6.984;2023-05-25T11:07:54;55931.66;;;-142.13;28.71
11712;BME280;5912;51.034;6.984;2023-05-25T11:13:42;55887.59;;;-142.13;28.07
11712;BME280;5912;51.034;6.984;2023-05-25T11:18:57;55829.53;;;-142.13;27.42
11712;BME280;5912;51.034;6.984;2023-05-25T11:24:01;55831.53;;;-142.13;26.22
11712;BME280;5912;51.034;6.984;2023-05-25T11:26:29;55887.59;;;-142.13;26.77
11712;BME280;5912;51.034;6.984;2023-05-25T11:28:56;55875.59;;;-142.13;27.61
11712;BME280;5912;51.034;6.984;2023-05-25T11:31:28;55899.63;;;-142.13;28.48
11712;BME280;5912;51.034;6.984;2023-05-25T11:33:56;55887.59;;;-142.13;27.92
11712;BME280;5912;51.034;6.984;2023-05-25T11:36:22;55935.69;;;-142.13;28.60
11712;BME280;5912;51.034;6.984;2023-05-25T11:38:47;55915.66;;;-142.13;28.71
11712;BME280;5912;51.034;6.984;2023-05-25T11:41:20;55903.63;;;-142.13;28.42
11712;BME280;5912;51.034;6.984;2023-05-25T11:43:49;55891.63;;;-142.13;27.50
11712;BME280;5912;51.034;6.984;2023-05-25T11:46:18;55859.56;;;-142.13;28.29
11712;BME280;5912;51.034;6.984;2023-05-25T11:48:48;55849.56;;;-142.13;28.05
11712;BME280;5912;51.034;6.984;2023-05-25T11:51:13;55865.56;;;-142.13;27.49
11712;BME280;5912;51.034;6.984;2023-05-25T11:53:43;55907.63;;;-142.13;28.18
11712;BME280;5912;51.034;6.984;2023-05-25T11:56:10;55925.66;;;-142.13;28.29
11712;BME280;5912;51.034;6.984;2023-05-25T11:58:36;55981.75;;;-142.13;29.51
11712;BME280;5912;51.034;6.984;2023-05-25T12:01:15;56007.78;;;-142.13;30.18
11712;BME280;5912;51.034;6.984;2023-05-25T12:03:41;55965.72;;;-142.13;29.68
11712;BME280;5912;51.034;6.984;2023-05-25T12:06:07;55987.75;;;-142.13;29.54
11712;BME280;5912;51.034;6.984;2023-05-25T12:08:33;55951.69;;;-142.13;29.80
11712;BME280;5912;51.034;6.984;2023-05-25T12:10:58;55957.72;;;-142.13;29.85
11712;BME280;5912;51.034;6.984;2023-05-25T12:13:24;55955.72;;;-142.13;29.42
11712;BME280;5912;51.034;6.984;2023-05-25T12:15:51;55933.69;;;-142.13;28.81
11712;BME280;5912;51.034;6.984;2023-05-25T12:18:17;55927.66;;;-142.13;29.27
11712;BME280;5912;51.034;6.984;2023-05-25T12:20:42;55885.59;;;-142.13;28.53
11712;BME280;5912;51.034;6.984;2023-05-25T12:23:08;55915.66;;;-142.13;28.27
11712;BME280;5912;51.034;6.984;2023-05-25T12:25:34;55897.63;;;-142.13;28.01
11712;BME280;5912;51.034;6.984;2023-05-25T12:28:13;55913.66;;;-142.13;28.19
11712;BME280;5912;51.034;6.984;2023-05-25T12:30:39;55907.63;;;-142.13;28.25
11712;BME280;5912;51.034;6.984;2023-05-25T12:33:05;55917.66;;;-142.13;28.71
11712;BME280;5912;51.034;6.984;2023-05-25T12:35:48;55925.66;;;-142.13;28.63
11712;BME280;5912;51.034;6.984;2023-05-25T12:38:18;55925.66;;;-142.13;28.76
11712;BME280;5912;51.034;6.984;2023-05-25T12:40:44;55917.66;;;-142.13;28.72
11712;BME280;5912;51.034;6.984;2023-05-25T12:43:09;55927.66;;;-142.13;28.55
11712;BME280;5912;51.034;6.984;2023-05-25T12:45:42;55927.66;;;-142.13;28.39
11712;BME280;5912;51.034;6.984;2023-05-25T12:48:08;55933.69;;;-142.13;29.01
11712;BME280;5912;51.034;6.984;2023-05-25T12:50:33;55941.69;;;-142.13;28.48
11712;BME280;5912;51.034;6.984;2023-05-25T12:53:00;55917.66;;;-142.13;28.46
11712;BME280;5912;51.034;6.984;2023-05-25T12:55:28;55945.69;;;-142.13;28.42
11712;BME280;5912;51.034;6.984;2023-05-25T12:57:55;55941.69;;;-142.13;28.39
11712;BME280;5912;51.034;6.984;2023-05-25T13:00:24;55923.66;;;-142.13;28.04
11712;BME280;5912;51.034;6.984;2023-05-25T13:02:51;55919.66;;;-142.13;28.14
11712;BME280;5912;51.034;6.984;2023-05-25T13:05:18;55915.66;;;-142.13;28.28
11712;BME280;5912;51.034;6.984;2023-05-25T13:07:43;55917.66;;;-142.13;27.97
11712;BME280;5912;51.034;6.984;2023-05-25T13:10:09;55909.63;;;-142.13;27.99